Time;durP1;ratioP1;P1;durP2;ratioP2;P2;SDS_P1;SDS_P2;PMS_P1;PMS_P2;Temp;Humidity;BMP_temperature;BMP_pressure;BME280_temperature;BME280_humidity;BME280_pressure;Samples;Min_cycle;Max_cycle;Signal;HPM_P1;HPM_P2
2023/10/17 00:00:29;;;;;;;0.20;0.20;;;8.20;99.90;;;;;;5029973;28;20037;-71
2023/10/17 00:02:54;;;;;;;0.20;0.20;;;8.10;99.90;;;;;;5031709;28;20060;-70
2023/10/17 00:05:23;;;;;;;0.10;0.10;;;8.10;99.90;;;;;;5042987;28;20045;-71
2023/10/17 00:07:48;;;;;;;0.20;0.20;;;8.10;99.90;;;;;;5029371;28;20048;-71
2023/10/17 00:10:16;;;;;;;0.15;0.15;;;8.20;99.90;;;;;;5029902;28;20124;-71
2023/10/17 00:12:44;;;;;;;0.10;0.10;;;8.20;99.90;;;;;;5045839;28;20045;-71
2023/10/17 00:15:28;;;;;;;0.20;0.20;;;8.20;99.90;;;;;;5049030;28;20052;-71
2023/10/17 00:18:17;;;;;;;0.10;0.10;;;8.20;99.90;;;;;;5049771;28;20089;-71
2023/10/17 00:20:43;;;;;;;0.10;0.10;;;8.30;99.90;;;;;;5045859;28;20302;-71
2023/10/17 00:23:14;;;;;;;0.10;0.10;;;8.40;99.90;;;;;;5030226;28;20472;-71
2023/10/17 00:25:45;;;;;;;0.20;0.20;;;8.20;99.90;;;;;;5058970;28;20057;-71
2023/10/17 00:28:12;;;;;;;0.10;0.10;;;8.20;99.90;;;;;;5052252;28;20050;-71
2023/10/17 00:30:38;;;;;;;0.15;0.15;;;8.20;99.90;;;;;;5053104;28;20044;-71
2023/10/17 00:33:12;;;;;;;0.20;0.20;;;8.20;99.90;;;;;;5051186;28;20392;-71
2023/10/17 00:35:40;;;;;;;0.20;0.20;;;8.20;99.90;;;;;;5049555;28;20056;-71
2023/10/17 00:38:09;;;;;;;0.20;0.20;;;8.20;99.90;;;;;;5052968;28;20049;-71
2023/10/17 00:40:45;;;;;;;0.20;0.20;;;8.20;99.90;;;;;;5049933;28;20439;-70
2023/10/17 00:43:14;;;;;;;0.10;0.10;;;8.10;99.90;;;;;;5051383;28;20074;-71
2023/10/17 00:45:41;;;;;;;0.10;0.10;;;8.10;99.90;;;;;;5045465;28;20129;-71
2023/10/17 00:48:18;;;;;;;0.20;0.20;;;8.10;99.90;;;;;;5070001;28;20080;-71
2023/10/17 00:50:47;;;;;;;0.20;0.20;;;8.10;99.90;;;;;;5067589;28;20052;-71
2023/10/17 00:53:13;;;;;;;0.10;0.10;;;8.20;99.90;;;;;;5048650;28;20052;-71
2023/10/17 00:55:40;;;;;;;0.20;0.20;;;8.10;99.90;;;;;;5037829;28;20427;-71
2023/10/17 00:58:06;;;;;;;0.10;0.10;;;8.10;99.90;;;;;;5069385;28;20045;-70
2023/10/17 01:00:40;;;;;;;0.20;0.20;;;8.10;99.90;;;;;;5052701;28;20047;-70
2023/10/17 01:03:10;;;;;;;0.20;0.20;;;8.10;99.90;;;;;;5062102;28;20427;-71
2023/10/17 01:08:58;;;;;;;0.20;0.20;;;8.10;99.90;;;;;;5005180;28;20528;-71
2023/10/17 01:11:27;;;;;;;0.10;0.10;;;8.10;99.90;;;;;;4989774;28;20046;-70
2023/10/17 01:13:54;;;;;;;0.20;0.20;;;8.10;99.90;;;;;;5019547;28;20132;-70
2023/10/17 01:16:22;;;;;;;0.10;0.10;;;8.10;99.90;;;;;;5052680;28;20049;-71
2023/10/17 01:18:47;;;;;;;0.20;0.20;;;8.20;99.90;;;;;;5067206;28;20040;-70
2023/10/17 01:21:18;;;;;;;0.20;0.20;;;8.10;99.90;;;;;;5046234;28;20044;-70
2023/10/17 01:23:45;;;;;;;0.10;0.10;;;8.10;99.90;;;;;;5066825;28;20105;-71
2023/10/17 01:26:23;;;;;;;0.20;0.20;;;8.10;99.90;;;;;;5044714;28;20045;-70
2023/10/17 01:28:51;;;;;;;0.20;0.20;;;8.10;99.90;;;;;;5039317;28;20059;-70
2023/10/17 01:31:24;;;;;;;0.13;0.13;;;8.10;99.90;;;;;;5067311;28;20048;-71
2023/10/17 01:33:52;;;;;;;0.20;0.20;;;8.10;99.90;;;;;;5043029;28;20045;-71
2023/10/17 01:36:19;;;;;;;0.20;0.20;;;8.10;99.90;;;;;;5040654;28;20033;-71
2023/10/17 01:38:46;;;;;;;0.17;0.17;;;8.10;99.90;;;;;;5046416;28;20057;-71
2023/10/17 01:41:12;;;;;;;0.15;0.15;;;8.10;99.90;;;;;;5047987;28;20045;-71
2023/10/17 01:43:45;;;;;;;0.17;0.17;;;8.10;99.90;;;;;;5035493;28;20060;-71
2023/10/17 01:46:15;;;;;;;0.20;0.20;;;8.10;99.90;;;;;;5033445;28;20124;-71
2023/10/17 01:48:48;;;;;;;0.10;0.10;;;8.20;99.90;;;;;;5064880;28;20040;-71
2023/10/17 01:51:19;;;;;;;0.15;0.15;;;8.20;99.90;;;;;;5051564;28;20399;-71
2023/10/17 01:53:48;;;;;;;0.20;0.20;;;8.10;99.90;;;;;;5041693;28;20055;-70
2023/10/17 01:56:14;;;;;;;0.20;0.20;;;8.30;99.90;;;;;;5048501;28;20601;-71
2023/10/17 01:58:51;;;;;;;0.10;0.10;;;8.20;99.90;;;;;;5039876;28;20443;-71
2023/10/17 02:01:29;;;;;;;0.15;0.15;;;8.20;99.90;;;;;;5031813;28;20059;-71
2023/10/17 02:04:03;;;;;;;0.10;0.10;;;8.10;99.90;;;;;;5042504;28;20052;-71
2023/10/17 02:06:33;;;;;;;0.10;0.10;;;8.20;99.90;;;;;;5053223;28;20078;-71
2023/10/17 02:08:59;;;;;;;0.20;0.20;;;8.20;99.90;;;;;;5030747;28;20053;-71
2023/10/17 02:11:32;;;;;;;0.17;0.17;;;8.20;99.90;;;;;;5034185;28;20040;-71
2023/10/17 02:13:59;;;;;;;0.10;0.10;;;8.20;99.90;;;;;;5041168;28;20098;-70
2023/10/17 02:16:29;;;;;;;0.20;0.20;;;8.20;99.90;;;;;;5051525;28;20044;-71
2023/10/17 02:19:05;;;;;;;0.20;0.20;;;8.20;99.90;;;;;;5069455;28;20078;-71
2023/10/17 02:21:31;;;;;;;0.10;0.10;;;8.20;99.90;;;;;;5067710;28;20048;-71
2023/10/17 02:23:57;;;;;;;0.10;0.10;;;8.20;99.90;;;;;;5050743;28;20055;-71
2023/10/17 02:26:23;;;;;;;0.20;0.20;;;8.20;99.90;;;;;;5067014;28;20048;-70
2023/10/17 02:28:53;;;;;;;0.10;0.10;;;8.20;99.90;;;;;;5038647;28;20082;-70
2023/10/17 02:31:29;;;;;;;0.20;0.20;;;8.10;99.90;;;;;;5044068;28;20052;-71
2023/10/17 02:33:58;;;;;;;0.20;0.20;;;8.10;99.90;;;;;;5039587;28;20052;-71
2023/10/17 02:36:25;;;;;;;0.20;0.20;;;8.20;99.90;;;;;;5042221;28;20536;-71
2023/10/17 02:38:50;;;;;;;0.10;0.10;;;8.10;99.90;;;;;;5058288;28;20396;-70
2023/10/17 02:41:19;;;;;;;0.20;0.20;;;8.00;99.90;;;;;;5049783;28;20048;-71
2023/10/17 02:43:46;;;;;;;0.10;0.10;;;7.90;99.90;;;;;;5049560;28;20482;-70
2023/10/17 02:46:14;;;;;;;0.20;0.20;;;7.90;99.90;;;;;;5068843;28;20067;-71
2023/10/17 02:48:42;;;;;;;0.20;0.20;;;7.80;99.90;;;;;;5052651;28;20047;-70
2023/10/17 02:51:31;;;;;;;0.20;0.20;;;7.80;99.90;;;;;;5058542;28;20060;-71
2023/10/17 02:53:58;;;;;;;0.10;0.10;;;8.30;99.90;;;;;;5067618;28;20127;-71
2023/10/17 02:56:25;;;;;;;0.20;0.20;;;7.80;99.90;;;;;;5047359;28;20701;-71
2023/10/17 02:59:06;;;;;;;0.20;0.20;;;7.70;99.90;;;;;;5061386;28;20079;-71
2023/10/17 03:01:39;;;;;;;0.20;0.20;;;7.70;99.90;;;;;;5050235;28;20479;-70
2023/10/17 03:04:10;;;;;;;0.10;0.10;;;7.70;99.90;;;;;;5038870;28;20052;-71
2023/10/17 03:06:43;;;;;;;0.10;0.10;;;7.60;99.90;;;;;;5042266;28;20071;-71
2023/10/17 03:17:12;;;;;;;0.10;0.10;;;7.60;99.90;;;;;;5048101;28;20080;-71
2023/10/17 03:19:38;;;;;;;0.10;0.10;;;7.50;99.90;;;;;;5050334;28;20067;-70
2023/10/17 03:24:59;;;;;;;0.10;0.10;;;7.50;99.90;;;;;;5049131;28;20085;-71
2023/10/17 03:27:37;;;;;;;0.20;0.20;;;7.50;99.90;;;;;;5066895;28;20056;-71
2023/10/17 03:30:10;;;;;;;0.15;0.15;;;7.40;99.90;;;;;;5051574;28;20044;-71
2023/10/17 03:32:52;;;;;;;0.10;0.10;;;7.40;99.90;;;;;;5048906;28;20047;-71
2023/10/17 03:35:21;;;;;;;0.20;0.20;;;7.30;99.90;;;;;;5052086;28;20064;-71
2023/10/17 03:37:47;;;;;;;0.20;0.20;;;7.30;99.90;;;;;;5070704;28;20564;-71
2023/10/17 03:40:17;;;;;;;0.20;0.20;;;7.20;99.90;;;;;;5053936;28;20044;-71
2023/10/17 03:43:28;;;;;;;0.20;0.20;;;7.20;99.90;;;;;;5053470;28;20400;-70
2023/10/17 03:45:43;;;;;;;0.20;0.20;;;7.20;99.90;;;;;;5029601;28;20099;-71
2023/10/17 03:48:15;;;;;;;0.20;0.20;;;7.10;99.90;;;;;;5044244;28;20511;-71
2023/10/17 03:53:15;;;;;;;0.20;0.20;;;7.10;99.90;;;;;;5070249;28;20558;-70
2023/10/17 03:55:48;;;;;;;0.20;0.20;;;7.10;99.90;;;;;;5071690;28;20452;-71
2023/10/17 03:58:24;;;;;;;0.50;0.50;;;9.30;99.90;;;;;;5052630;28;20164;-70
2023/10/17 04:00:51;;;;;;;0.20;0.20;;;7.00;99.90;;;;;;5069439;28;20488;-71
2023/10/17 04:03:35;;;;;;;0.10;0.10;;;7.00;99.90;;;;;;5042635;28;20444;-70
2023/10/17 04:08:34;;;;;;;0.20;0.20;;;7.00;99.90;;;;;;5043328;28;20132;-71
2023/10/17 04:13:50;;;;;;;0.20;0.20;;;7.10;99.90;;;;;;5041669;28;20061;-71
2023/10/17 04:16:33;;;;;;;0.20;0.20;;;7.10;99.90;;;;;;5062421;28;20459;-71
2023/10/17 04:19:07;;;;;;;0.20;0.20;;;7.10;99.90;;;;;;5045379;28;20040;-70
2023/10/17 04:21:38;;;;;;;0.20;0.20;;;7.20;99.90;;;;;;5052076;28;20052;-71
2023/10/17 04:24:07;;;;;;;0.20;0.20;;;7.20;99.90;;;;;;5048462;28;20049;-71
2023/10/17 04:26:36;;;;;;;0.10;0.10;;;7.20;99.90;;;;;;5032706;28;20515;-70
2023/10/17 04:29:21;;;;;;;0.20;0.20;;;7.20;99.90;;;;;;5032811;28;20048;-71
2023/10/17 04:31:47;;;;;;;0.20;0.20;;;7.20;99.90;;;;;;5044105;28;20186;-70
2023/10/17 04:34:26;;;;;;;0.20;0.20;;;7.20;99.90;;;;;;5037071;28;20128;-71
2023/10/17 04:36:53;;;;;;;0.10;0.10;;;7.30;99.90;;;;;;5052455;28;20079;-70
2023/10/17 04:39:18;;;;;;;0.17;0.17;;;7.30;99.90;;;;;;5051918;28;20177;-71
2023/10/17 04:44:18;;;;;;;0.10;0.10;;;7.40;99.90;;;;;;5066986;28;20472;-70
2023/10/17 04:49:31;;;;;;;0.10;0.10;;;7.30;99.90;;;;;;5040696;28;20074;-71
2023/10/17 04:52:06;;;;;;;0.15;0.15;;;7.30;99.90;;;;;;5052631;28;20070;-71
2023/10/17 04:57:04;;;;;;;0.13;0.13;;;7.30;99.90;;;;;;5052956;28;20102;-71
2023/10/17 06:18:52;;;;;;;0.60;0.25;;;7.70;99.90;;;;;;5051465;28;20071;-71
2023/10/17 06:21:18;;;;;;;0.10;0.10;;;7.70;99.90;;;;;;5041292;28;20056;-71
2023/10/17 06:34:16;;;;;;;0.10;0.10;;;7.80;99.90;;;;;;5045863;28;20044;-71
2023/10/17 06:36:43;;;;;;;0.15;0.15;;;7.80;99.90;;;;;;5051100;28;20067;-71
2023/10/17 06:39:16;;;;;;;0.20;0.20;;;7.80;99.90;;;;;;5050141;28;20103;-71
2023/10/17 06:41:44;;;;;;;0.20;0.20;;;7.90;99.90;;;;;;5037762;28;20189;-71
2023/10/17 06:44:11;;;;;;;0.17;0.17;;;7.90;99.90;;;;;;5067693;28;20106;-70
2023/10/17 06:46:55;;;;;;;0.17;0.17;;;7.90;99.90;;;;;;5051792;28;20052;-71
2023/10/17 06:49:47;;;;;;;0.20;0.20;;;7.90;99.90;;;;;;5041126;28;20044;-71
2023/10/17 06:54:58;;;;;;;0.30;0.30;;;8.00;99.90;;;;;;5049560;28;20056;-71
2023/10/17 06:57:24;;;;;;;0.10;0.10;;;8.10;99.90;;;;;;5048208;28;20043;-71
2023/10/17 07:00:00;;;;;;;0.10;0.10;;;8.10;99.90;;;;;;5031874;28;20037;-71
2023/10/17 07:02:41;;;;;;;0.10;0.10;;;8.10;99.90;;;;;;5045452;28;20136;-70
2023/10/17 07:05:08;;;;;;;0.10;0.10;;;8.10;99.90;;;;;;5066359;28;20049;-71
2023/10/17 07:07:41;;;;;;;0.17;0.17;;;8.10;99.90;;;;;;5048259;28;20048;-70
2023/10/17 07:10:16;;;;;;;0.10;0.10;;;8.10;99.90;;;;;;5035455;28;20380;-71
2023/10/17 07:12:47;;;;;;;0.10;0.10;;;8.20;99.90;;;;;;5047446;28;20075;-71
2023/10/17 07:15:18;;;;;;;0.10;0.10;;;8.30;99.90;;;;;;5026059;28;20161;-71
2023/10/17 07:23:19;;;;;;;0.20;0.20;;;8.40;99.90;;;;;;5062552;28;20072;-71
2023/10/17 07:25:49;;;;;;;0.10;0.10;;;8.40;99.90;;;;;;5051996;28;20055;-71
2023/10/17 07:28:15;;;;;;;0.10;0.10;;;8.40;99.90;;;;;;5047757;28;20083;-71
2023/10/17 07:30:49;;;;;;;0.10;0.10;;;8.50;99.90;;;;;;5041722;28;20072;-71
2023/10/17 07:33:17;;;;;;;0.10;0.10;;;8.50;99.90;;;;;;5042646;28;20045;-71
2023/10/17 07:35:43;;;;;;;0.10;0.10;;;8.50;99.90;;;;;;5051974;28;20052;-70
2023/10/17 07:38:09;;;;;;;0.10;0.10;;;8.50;99.90;;;;;;5050748;28;20037;-71
2023/10/17 07:43:07;;;;;;;;;;;8.50;99.90;;;;;;5052870;28;20109;-71
2023/10/17 07:45:40;;;;;;;0.15;0.15;;;8.50;99.90;;;;;;5052889;28;20081;-70
2023/10/17 07:48:20;;;;;;;0.13;0.13;;;8.60;99.90;;;;;;5051057;28;20437;-71
2023/10/17 07:50:54;;;;;;;0.10;0.10;;;8.60;99.90;;;;;;5024287;28;20049;-71
2023/10/17 07:53:20;;;;;;;0.20;0.20;;;8.60;99.90;;;;;;5067759;28;20385;-72
2023/10/17 07:56:04;;;;;;;0.20;0.20;;;8.60;99.90;;;;;;5045617;28;20463;-71
2023/10/17 07:58:39;;;;;;;0.15;0.15;;;8.70;99.90;;;;;;5066951;28;20490;-71
2023/10/17 08:01:08;;;;;;;0.15;0.15;;;9.00;99.90;;;;;;5054705;28;20063;-71
2023/10/17 08:03:39;;;;;;;0.20;0.20;;;8.70;99.90;;;;;;5051092;28;20041;-70
2023/10/17 08:06:05;;;;;;;0.10;0.10;;;8.80;99.90;;;;;;5048148;28;20048;-70
2023/10/17 08:08:41;;;;;;;0.10;0.10;;;8.80;99.90;;;;;;5047716;28;20052;-73
2023/10/17 08:11:26;;;;;;;0.10;0.10;;;8.80;99.90;;;;;;5041438;28;20052;-71
2023/10/17 08:13:52;;;;;;;0.20;0.20;;;8.80;99.90;;;;;;5043734;28;20385;-70
2023/10/17 08:16:32;;;;;;;0.10;0.10;;;9.30;99.90;;;;;;5033481;28;20441;-72
2023/10/17 08:20:00;;;;;;;0.10;0.10;;;8.90;99.90;;;;;;5050565;28;20128;-71
2023/10/17 08:22:09;;;;;;;0.20;0.20;;;8.90;99.90;;;;;;5023495;28;20551;-71
2023/10/17 08:27:13;;;;;;;0.20;0.20;;;8.90;99.90;;;;;;5053077;28;20053;-71
2023/10/17 08:29:43;;;;;;;0.20;0.20;;;9.00;99.90;;;;;;5053387;28;20049;-70
2023/10/17 08:32:38;;;;;;;0.20;0.20;;;9.00;99.90;;;;;;5053627;28;20052;-70
2023/10/17 08:35:03;;;;;;;0.20;0.20;;;9.10;99.90;;;;;;5048922;28;20189;-71
2023/10/17 08:37:30;;;;;;;0.10;0.10;;;9.10;99.90;;;;;;5032782;28;20049;-70
2023/10/17 08:39:57;;;;;;;0.10;0.10;;;9.10;99.90;;;;;;5041618;28;20094;-71
2023/10/17 08:44:55;;;;;;;0.15;0.15;;;9.30;99.90;;;;;;5054080;28;20074;-71
2023/10/17 08:47:25;;;;;;;0.10;0.10;;;9.30;99.90;;;;;;5055633;28;20041;-71
2023/10/17 08:49:54;;;;;;;0.10;0.10;;;9.40;99.90;;;;;;5056143;28;20048;-71
2023/10/17 08:52:27;;;;;;;0.20;0.20;;;9.40;99.90;;;;;;5052660;28;20498;-70
2023/10/17 08:54:53;;;;;;;0.20;0.20;;;9.50;99.90;;;;;;5048768;28;20400;-70
2023/10/17 08:57:20;;;;;;;0.20;0.20;;;9.50;99.90;;;;;;5050927;28;20045;-70
2023/10/17 09:02:29;;;;;;;0.20;0.20;;;9.60;99.90;;;;;;5053712;28;20068;-71
2023/10/17 09:05:12;;;;;;;0.10;0.10;;;9.70;99.90;;;;;;5052306;28;20499;-70
2023/10/17 09:07:43;;;;;;;0.20;0.20;;;9.80;99.90;;;;;;5069954;28;20127;-70
2023/10/17 09:10:28;;;;;;;0.10;0.10;;;9.80;99.90;;;;;;5052036;28;20045;-71
2023/10/17 09:15:50;;;;;;;0.20;0.20;;;10.00;99.90;;;;;;5051472;28;20127;-71
2023/10/17 09:18:22;;;;;;;0.20;0.20;;;10.10;99.90;;;;;;5043856;28;20053;-71
2023/10/17 09:20:50;;;;;;;0.10;0.10;;;10.20;99.90;;;;;;5050337;28;20041;-71
2023/10/17 09:23:27;;;;;;;0.20;0.20;;;10.20;99.90;;;;;;5031380;28;20068;-71
2023/10/17 09:26:07;;;;;;;0.15;0.15;;;10.20;99.90;;;;;;5067601;28;20661;-71
2023/10/17 09:28:33;;;;;;;0.15;0.15;;;10.30;99.90;;;;;;5051467;28;20076;-71
2023/10/17 09:31:08;;;;;;;0.10;0.10;;;10.40;99.90;;;;;;5051177;28;20127;-71
2023/10/17 09:33:36;;;;;;;0.10;0.10;;;10.40;99.90;;;;;;5070354;28;20040;-70
2023/10/17 09:36:06;;;;;;;0.17;0.17;;;10.50;99.90;;;;;;5051202;28;20041;-70
2023/10/17 09:38:41;;;;;;;0.10;0.10;;;10.60;99.90;;;;;;5052183;28;20509;-71
2023/10/17 09:41:08;;;;;;;0.10;0.10;;;10.50;99.90;;;;;;5070118;28;20045;-71
2023/10/17 09:43:36;;;;;;;0.20;0.20;;;10.60;99.90;;;;;;5069830;28;20126;-71
2023/10/17 09:46:03;;;;;;;0.10;0.10;;;10.70;99.90;;;;;;5052191;28;20059;-70
2023/10/17 09:48:43;;;;;;;0.10;0.10;;;10.80;99.90;;;;;;5044535;28;20048;-71
2023/10/17 09:51:14;;;;;;;0.20;0.20;;;11.10;99.90;;;;;;5046642;28;20139;-71
2023/10/17 09:53:41;;;;;;;0.10;0.10;;;10.90;99.90;;;;;;5067493;28;20056;-71
2023/10/17 09:56:19;;;;;;;0.17;0.17;;;10.90;99.90;;;;;;5068003;28;21743;-71
2023/10/17 09:58:50;;;;;;;0.10;0.10;;;11.00;99.90;;;;;;5031805;28;20496;-71
2023/10/17 10:01:20;;;;;;;0.20;0.20;;;11.10;99.90;;;;;;5061419;28;20067;-71
2023/10/17 10:03:56;;;;;;;0.20;0.20;;;11.20;99.90;;;;;;5046782;28;20052;-71
2023/10/17 10:06:32;;;;;;;0.10;0.10;;;11.20;99.90;;;;;;5039611;28;20068;-71
2023/10/17 10:09:13;;;;;;;0.10;0.10;;;11.30;99.90;;;;;;5050312;28;20055;-71
2023/10/17 10:11:48;;;;;;;0.20;0.20;;;11.30;99.90;;;;;;5051382;28;20071;-71
2023/10/17 10:14:15;;;;;;;0.10;0.10;;;11.40;99.90;;;;;;5050831;28;20400;-71
2023/10/17 10:16:54;;;;;;;0.20;0.20;;;11.40;99.90;;;;;;5068619;28;20040;-71
2023/10/17 10:19:24;;;;;;;0.10;0.10;;;11.50;99.90;;;;;;5031026;28;20427;-71
2023/10/17 10:22:00;;;;;;;0.20;0.20;;;11.50;99.90;;;;;;5032009;28;20049;-71
2023/10/17 10:24:26;;;;;;;0.13;0.13;;;11.60;99.90;;;;;;5033702;28;20053;-70
2023/10/17 10:27:18;;;;;;;0.15;0.15;;;11.60;99.90;;;;;;5047918;28;20095;-71
2023/10/17 10:29:52;;;;;;;;;;;11.80;99.90;;;;;;5054767;28;20451;-71
2023/10/17 10:32:34;;;;;;;0.20;0.20;;;11.70;99.90;;;;;;5050683;28;19927;-71
2023/10/17 10:35:07;;;;;;;0.20;0.20;;;11.90;99.90;;;;;;5038596;28;20048;-71
2023/10/17 10:37:49;;;;;;;0.20;0.20;;;11.90;99.90;;;;;;5033689;28;20033;-71
2023/10/17 10:40:22;;;;;;;0.10;0.10;;;12.10;99.90;;;;;;5042147;28;20041;-71
2023/10/17 10:42:53;;;;;;;0.10;0.10;;;12.10;99.90;;;;;;5049222;28;20048;-71
2023/10/17 10:45:26;;;;;;;0.20;0.20;;;12.10;99.90;;;;;;5071062;28;20182;-70
2023/10/17 10:47:58;;;;;;;0.10;0.10;;;12.20;99.90;;;;;;5055101;28;20059;-71
2023/10/17 10:50:33;;;;;;;0.13;0.13;;;12.30;99.90;;;;;;5044356;28;20118;-71
2023/10/17 10:53:28;;;;;;;0.20;0.20;;;12.40;99.90;;;;;;5052506;28;20229;-71
2023/10/17 10:56:01;;;;;;;0.10;0.10;;;12.40;99.90;;;;;;5054618;28;20670;-71
2023/10/17 10:58:29;;;;;;;0.10;0.10;;;12.50;99.90;;;;;;5055831;28;20438;-71
2023/10/17 11:01:00;;;;;;;0.10;0.10;;;12.50;99.90;;;;;;5054341;28;20036;-71
2023/10/17 11:03:26;;;;;;;0.20;0.20;;;12.60;99.90;;;;;;5048119;28;20044;-71
2023/10/17 11:06:02;;;;;;;0.10;0.10;;;12.60;99.90;;;;;;5071964;28;20399;-71
2023/10/17 11:08:36;;;;;;;0.10;0.10;;;12.70;99.90;;;;;;5049138;28;20052;-71
2023/10/17 11:11:03;;;;;;;0.20;0.20;;;12.80;99.90;;;;;;5046638;28;20052;-71
2023/10/17 11:13:33;;;;;;;0.10;0.10;;;12.80;99.90;;;;;;5060879;28;20056;-71
2023/10/17 11:15:58;;;;;;;0.10;0.10;;;12.90;99.90;;;;;;5054101;28;20484;-70
2023/10/17 11:18:24;;;;;;;0.15;0.15;;;12.90;99.90;;;;;;5072597;28;20051;-70
2023/10/17 11:20:55;;;;;;;0.20;0.20;;;13.00;99.90;;;;;;5049027;28;20044;-71
2023/10/17 11:23:26;;;;;;;0.10;0.10;;;12.90;99.90;;;;;;5049536;28;20195;-70
2023/10/17 11:25:52;;;;;;;;;;;13.00;99.90;;;;;;5057618;28;20044;-71
2023/10/17 11:28:17;;;;;;;0.10;0.10;;;13.00;99.90;;;;;;5035284;28;19921;-71
2023/10/17 11:30:45;;;;;;;0.20;0.20;;;13.00;99.90;;;;;;5044962;28;20500;-71
2023/10/17 11:33:14;;;;;;;0.10;0.10;;;13.10;99.90;;;;;;5049743;28;20277;-71
2023/10/17 11:35:51;;;;;;;0.15;0.15;;;13.10;99.90;;;;;;5047459;28;20048;-70
2023/10/17 11:38:37;;;;;;;0.10;0.10;;;13.20;99.90;;;;;;5066000;28;20044;-71
2023/10/17 11:41:04;;;;;;;0.10;0.10;;;13.20;99.90;;;;;;5044460;28;20128;-71
2023/10/17 11:43:34;;;;;;;0.20;0.20;;;13.30;99.90;;;;;;5040054;28;20040;-71
2023/10/17 11:46:02;;;;;;;0.10;0.10;;;13.30;99.90;;;;;;5049012;28;20037;-71
2023/10/17 11:48:33;;;;;;;0.20;0.20;;;13.40;99.90;;;;;;5070101;28;20434;-71
2023/10/17 11:51:05;;;;;;;0.10;0.10;;;13.30;99.90;;;;;;5043802;28;20511;-71
2023/10/17 11:53:34;;;;;;;0.13;0.13;;;13.50;99.90;;;;;;5047698;28;20443;-71
2023/10/17 11:56:01;;;;;;;0.10;0.10;;;13.50;99.90;;;;;;5041133;28;20156;-71
2023/10/17 11:58:29;;;;;;;0.17;0.17;;;13.60;99.90;;;;;;5066538;28;20040;-71
2023/10/17 12:00:57;;;;;;;0.10;0.10;;;13.60;99.90;;;;;;5050210;28;20504;-71
2023/10/17 12:03:26;;;;;;;0.20;0.20;;;13.80;99.90;;;;;;5061335;28;20076;-71
2023/10/17 12:05:53;;;;;;;0.20;0.20;;;14.00;99.90;;;;;;5051988;28;20434;-71
2023/10/17 12:08:22;;;;;;;0.17;0.17;;;14.20;99.90;;;;;;5053450;28;20138;-71
2023/10/17 12:10:53;;;;;;;0.20;0.20;;;14.40;99.90;;;;;;5052754;28;20090;-72
2023/10/17 12:13:19;;;;;;;0.20;0.20;;;14.80;99.90;;;;;;5066609;28;20377;-72
2023/10/17 12:15:48;;;;;;;0.20;0.20;;;14.90;99.90;;;;;;5046183;28;20480;-71
2023/10/17 12:18:14;;;;;;;0.20;0.20;;;15.20;99.90;;;;;;5069570;28;20056;-72
2023/10/17 12:20:42;;;;;;;0.20;0.20;;;15.50;99.90;;;;;;5038478;28;20041;-72
2023/10/17 12:23:11;;;;;;;0.20;0.20;;;15.90;99.90;;;;;;5042450;28;20048;-72
2023/10/17 12:25:42;;;;;;;0.20;0.20;;;16.40;99.90;;;;;;5045461;28;20085;-72
2023/10/17 12:28:08;;;;;;;0.20;0.20;;;17.10;99.90;;;;;;5034014;28;20072;-72
2023/10/17 12:30:38;;;;;;;0.20;0.20;;;18.00;99.90;;;;;;5034316;28;20049;-72
2023/10/17 12:33:05;;;;;;;0.20;0.20;;;20.00;99.90;;;;;;5069669;28;20044;-72
2023/10/17 12:35:31;;;;;;;0.20;0.20;;;21.90;99.90;;;;;;5070782;28;20068;-72
2023/10/17 12:38:06;;;;;;;0.20;0.20;;;;;;;;;;5069541;28;20484;-72
2023/10/17 12:40:32;;;;;;;0.20;0.20;;;23.90;99.90;;;;;;5045550;28;20117;-72
2023/10/17 12:42:57;;;;;;;0.20;0.20;;;25.70;99.90;;;;;;5051394;28;20124;-72
2023/10/17 12:45:24;;;;;;;0.20;0.20;;;27.30;99.90;;;;;;5041574;28;20616;-73
2023/10/17 12:47:51;;;;;;;0.20;0.20;;;;;;;;;;5038395;28;20547;-72
2023/10/17 12:50:19;;;;;;;0.20;0.20;;;30.20;99.90;;;;;;5062077;28;20041;-73
2023/10/17 12:52:45;;;;;;;0.20;0.20;;;31.10;99.90;;;;;;5065934;28;20288;-73
2023/10/17 12:55:14;;;;;;;0.20;0.20;;;32.20;99.90;;;;;;5064815;28;20044;-72
2023/10/17 12:57:39;;;;;;;0.20;0.20;;;33.20;99.90;;;;;;5050260;28;20063;-72
2023/10/17 13:00:09;;;;;;;0.20;0.20;;;34.20;99.90;;;;;;5048921;28;20041;-72
2023/10/17 13:02:39;;;;;;;0.20;0.20;;;35.00;97.20;;;;;;5041743;28;20048;-72
2023/10/17 13:05:09;;;;;;;0.20;0.20;;;35.70;93.50;;;;;;5040143;28;20483;-70
2023/10/17 13:07:38;;;;;;;0.20;0.20;;;36.30;90.50;;;;;;5051864;28;20150;-70
2023/10/17 13:10:05;;;;;;;0.20;0.20;;;36.80;85.30;;;;;;5064126;28;20512;-71
2023/10/17 13:12:32;;;;;;;0.20;0.20;;;37.40;80.70;;;;;;5038004;28;20045;-71
2023/10/17 13:14:57;;;;;;;0.30;0.25;;;37.80;76.50;;;;;;5051292;28;20451;-71
2023/10/17 13:17:24;;;;;;;0.20;0.20;;;38.10;72.00;;;;;;5070178;28;20136;-70
2023/10/17 13:19:51;;;;;;;0.20;0.20;;;38.00;68.70;;;;;;5047247;28;20040;-70
2023/10/17 13:22:19;;;;;;;0.20;0.20;;;38.10;66.90;;;;;;5068337;28;20056;-70
2023/10/17 13:24:47;;;;;;;0.20;0.20;;;37.90;63.80;;;;;;5043028;28;20057;-70
2023/10/17 13:27:13;;;;;;;0.20;0.20;;;37.40;61.10;;;;;;5050273;28;20045;-70
2023/10/17 13:29:39;;;;;;;0.20;0.20;;;36.30;58.30;;;;;;5031897;28;20444;-70
2023/10/17 13:32:07;;;;;;;0.20;0.20;;;34.80;72.30;;;;;;5053401;28;20041;-70
2023/10/17 13:34:37;;;;;;;0.20;0.20;;;33.50;60.00;;;;;;5033005;28;20472;-70
2023/10/17 13:37:07;;;;;;;0.20;0.20;;;;;;;;;;5034665;28;20115;-72
2023/10/17 13:39:33;;;;;;;0.20;0.20;;;30.80;57.10;;;;;;5050193;28;20060;-72
2023/10/17 13:42:02;;;;;;;0.20;0.20;;;;;;;;;;5052268;28;20114;-72
2023/10/17 13:44:28;;;;;;;0.20;0.20;;;;;;;;;;5055502;28;20386;-72
2023/10/17 13:46:54;;;;;;;0.20;0.20;;;26.60;60.10;;;;;;5032260;28;20044;-72
2023/10/17 13:49:21;;;;;;;0.20;0.20;;;26.20;60.90;;;;;;5031348;28;20048;-72
2023/10/17 13:51:47;;;;;;;0.20;0.20;;;24.60;61.90;;;;;;5032482;28;20496;-72
2023/10/17 13:54:14;;;;;;;0.20;0.20;;;24.40;62.30;;;;;;5030530;28;20102;-72
2023/10/17 13:56:40;;;;;;;0.20;0.20;;;23.60;63.50;;;;;;5032054;28;20119;-71
2023/10/17 13:59:09;;;;;;;0.20;0.20;;;22.90;64.20;;;;;;5058975;28;20075;-71
2023/10/17 14:01:41;;;;;;;0.20;0.20;;;22.10;64.70;;;;;;5050129;28;20045;-71
2023/10/17 14:04:11;;;;;;;0.20;0.20;;;21.30;65.60;;;;;;5033377;28;20045;-71
2023/10/17 14:06:42;;;;;;;0.20;0.20;;;20.50;66.60;;;;;;5032623;28;20614;-71
2023/10/17 14:09:17;;;;;;;0.20;0.20;;;19.80;67.30;;;;;;5043265;28;20059;-71
2023/10/17 14:11:47;;;;;;;0.20;0.20;;;19.30;69.10;;;;;;5032254;28;20040;-71
2023/10/17 14:14:16;;;;;;;0.20;0.20;;;18.70;69.80;;;;;;5041048;28;20051;-71
2023/10/17 14:16:42;;;;;;;0.20;0.20;;;17.80;71.30;;;;;;5064253;28;20059;-71
2023/10/17 14:27:32;;;;;;;0.10;0.10;;;16.50;74.10;;;;;;5062235;28;20063;-71
2023/10/17 14:29:59;;;;;;;0.20;0.20;;;16.40;75.50;;;;;;5044840;28;20044;-72
2023/10/17 14:32:26;;;;;;;0.10;0.10;;;16.00;76.50;;;;;;5034697;28;20045;-71
2023/10/17 14:34:52;;;;;;;0.20;0.20;;;15.80;77.60;;;;;;5040940;28;20373;-71
2023/10/17 14:37:20;;;;;;;0.17;0.17;;;15.60;78.50;;;;;;5058864;28;20083;-71
2023/10/17 14:39:46;;;;;;;0.20;0.20;;;15.40;80.00;;;;;;5040630;28;20047;-71
2023/10/17 14:42:13;;;;;;;0.10;0.10;;;15.20;81.70;;;;;;5042234;28;20124;-71
2023/10/17 14:44:41;;;;;;;0.20;0.20;;;15.00;83.50;;;;;;5044283;28;20086;-71
2023/10/17 14:47:07;;;;;;;0.10;0.10;;;14.90;85.20;;;;;;5048684;28;20044;-71
2023/10/17 14:49:32;;;;;;;0.20;0.20;;;14.70;86.70;;;;;;5061120;28;20029;-71
2023/10/17 14:51:58;;;;;;;0.20;0.20;;;14.50;88.60;;;;;;5035912;28;20496;-71
2023/10/17 14:54:25;;;;;;;0.20;0.20;;;14.40;90.10;;;;;;5064315;28;20431;-72
2023/10/17 14:56:51;;;;;;;0.20;0.20;;;14.30;91.00;;;;;;5051611;28;20045;-71
2023/10/17 14:59:20;;;;;;;0.20;0.20;;;14.20;91.80;;;;;;5037947;28;20058;-71
2023/10/17 15:01:46;;;;;;;0.10;0.10;;;14.00;92.40;;;;;;5046874;28;20090;-71
2023/10/17 15:04:12;;;;;;;0.20;0.20;;;14.20;93.80;;;;;;5046326;28;20045;-70
2023/10/17 15:06:38;;;;;;;0.15;0.15;;;13.80;93.50;;;;;;5036910;28;20048;-71
2023/10/17 15:09:06;;;;;;;0.20;0.20;;;13.70;94.10;;;;;;5043179;28;20052;-71
2023/10/17 15:11:32;;;;;;;0.10;0.10;;;13.60;94.70;;;;;;5066054;28;20089;-71
2023/10/17 15:14:00;;;;;;;0.10;0.10;;;13.50;95.20;;;;;;5047982;28;20401;-71
2023/10/17 15:16:27;;;;;;;0.20;0.20;;;13.90;98.20;;;;;;5031632;28;20404;-71
2023/10/17 15:18:54;;;;;;;0.20;0.20;;;13.40;96.50;;;;;;5036022;28;20518;-71
2023/10/17 15:21:21;;;;;;;0.10;0.10;;;13.30;97.00;;;;;;5050588;28;20147;-71
2023/10/17 15:23:47;;;;;;;0.10;0.10;;;13.30;97.30;;;;;;5047939;28;20052;-71
2023/10/17 15:26:13;;;;;;;0.20;0.20;;;13.20;97.80;;;;;;5046052;28;20067;-71
2023/10/17 15:28:45;;;;;;;0.10;0.10;;;13.10;98.20;;;;;;5045518;28;20491;-71
2023/10/17 15:31:14;;;;;;;0.10;0.10;;;13.00;98.70;;;;;;5047804;28;20056;-71
2023/10/17 15:33:40;;;;;;;0.15;0.15;;;12.90;99.20;;;;;;5043076;28;20072;-71
2023/10/17 15:36:11;;;;;;;0.20;0.20;;;12.90;99.50;;;;;;5050427;28;20055;-71
2023/10/17 15:38:38;;;;;;;0.20;0.20;;;12.80;99.90;;;;;;5057461;28;20044;-71
2023/10/17 15:41:03;;;;;;;0.20;0.20;;;12.80;99.90;;;;;;5053888;28;20404;-72